createdAt,value
2022-07-29T00:02:47.610Z,2.85
2022-07-29T00:05:49.598Z,2.80
2022-07-29T00:08:51.452Z,2.83
2022-07-29T00:15:09.866Z,3.03
2022-07-29T00:18:11.903Z,2.78
2022-07-29T00:21:13.957Z,2.80
2022-07-29T00:24:16.236Z,2.60
2022-07-29T00:27:21.038Z,2.53
2022-07-29T00:30:24.158Z,2.50
2022-07-29T00:33:26.016Z,2.67
2022-07-29T00:36:27.995Z,2.70
2022-07-29T00:39:30.398Z,2.65
2022-07-29T00:42:32.384Z,2.85
2022-07-29T00:45:34.555Z,2.87
2022-07-29T00:48:36.665Z,2.78
2022-07-29T00:51:40.230Z,2.75
2022-07-29T00:54:44.450Z,2.58
2022-07-29T00:57:47.245Z,2.75
2022-07-29T01:00:50.100Z,2.90
2022-07-29T01:03:51.985Z,2.80
2022-07-29T01:06:55.511Z,2.58
2022-07-29T01:10:00.099Z,2.60
2022-07-29T01:13:03.229Z,2.80
2022-07-29T01:16:19.274Z,2.70
2022-07-29T01:19:40.274Z,3.03
2022-07-29T01:23:01.033Z,2.70
2022-07-29T01:26:31.317Z,2.65
2022-07-29T01:29:42.425Z,2.80
2022-07-29T01:32:51.428Z,3.20
2022-07-29T01:35:53.432Z,2.58
2022-07-29T01:39:10.029Z,2.90
2022-07-29T01:42:22.095Z,3.10
2022-07-29T01:45:46.316Z,3.45
2022-07-29T01:49:02.696Z,2.75
2022-07-29T01:52:14.350Z,2.70
2022-07-29T01:55:26.200Z,2.50
2022-07-29T01:58:30.491Z,2.97
2022-07-29T02:01:34.190Z,2.97
2022-07-29T02:04:37.728Z,3.00
2022-07-29T02:07:43.367Z,2.87
2022-07-29T02:10:46.785Z,3.00
2022-07-29T02:13:51.548Z,2.75
2022-07-29T02:17:04.326Z,3.20
2022-07-29T02:20:07.454Z,2.95
2022-07-29T02:23:12.790Z,3.08
2022-07-29T02:26:15.559Z,3.30
2022-07-29T02:29:19.892Z,3.10
2022-07-29T02:32:23.840Z,3.20
2022-07-29T02:35:26.952Z,3.60
2022-07-29T02:38:48.497Z,3.12
2022-07-29T02:42:08.303Z,3.45
2022-07-29T02:45:10.968Z,3.90
2022-07-29T02:48:17.567Z,3.58
2022-07-29T02:51:41.435Z,3.28
2022-07-29T02:55:17.989Z,3.22
2022-07-29T02:58:30.363Z,3.08
2022-07-29T03:01:36.605Z,3.12
2022-07-29T03:04:42.835Z,3.37
2022-07-29T03:07:47.640Z,3.55
2022-07-29T03:10:53.195Z,3.28
2022-07-29T03:13:55.911Z,3.22
2022-07-29T03:16:58.789Z,3.85
2022-07-29T03:20:01.123Z,3.22
2022-07-29T03:23:03.269Z,3.67
2022-07-29T03:26:05.186Z,3.35
2022-07-29T03:29:07.115Z,3.87
2022-07-29T03:32:09.500Z,4.70
2022-07-29T03:35:12.537Z,4.10
2022-07-29T03:38:14.439Z,3.47
2022-07-29T03:41:17.942Z,4.30
2022-07-29T03:44:27.201Z,3.75
2022-07-29T03:47:36.834Z,3.85
2022-07-29T03:50:53.386Z,3.72
2022-07-29T03:53:55.312Z,3.37
2022-07-29T03:57:01.111Z,4.15
2022-07-29T04:00:05.941Z,3.72
2022-07-29T04:03:11.666Z,3.90
2022-07-29T04:06:14.076Z,4.07
2022-07-29T04:09:16.129Z,4.12
2022-07-29T04:12:17.945Z,4.07
2022-07-29T04:15:20.200Z,3.95
2022-07-29T04:18:22.104Z,3.65
2022-07-29T04:21:24.132Z,4.25
2022-07-29T04:24:26.259Z,4.10
2022-07-29T04:27:28.340Z,4.12
2022-07-29T04:30:31.852Z,4.40
2022-07-29T04:33:33.725Z,4.43
2022-07-29T04:36:35.862Z,4.28
2022-07-29T04:39:37.731Z,4.30
2022-07-29T04:42:46.793Z,4.70
2022-07-29T04:45:49.614Z,4.47
2022-07-29T04:48:51.547Z,4.37
2022-07-29T04:51:54.593Z,4.53
2022-07-29T04:54:56.313Z,4.68
2022-07-29T04:57:58.044Z,4.50
2022-07-29T05:01:00.618Z,4.03
2022-07-29T05:04:02.588Z,4.18
2022-07-29T05:07:05.292Z,4.20
2022-07-29T05:10:07.367Z,4.35
2022-07-29T05:13:09.232Z,4.30
2022-07-29T05:16:11.209Z,4.00
2022-07-29T05:19:14.693Z,4.32
2022-07-29T05:22:16.563Z,4.30
2022-07-29T05:25:44.396Z,4.43
2022-07-29T05:28:46.815Z,4.53
2022-07-29T05:31:48.632Z,3.85
2022-07-29T05:34:51.815Z,3.85
2022-07-29T05:37:53.988Z,4.68
2022-07-29T05:40:58.573Z,4.10
2022-07-29T05:44:00.551Z,4.12
2022-07-29T05:47:02.463Z,4.00
2022-07-29T05:50:05.613Z,4.30
2022-07-29T05:53:19.844Z,4.20
2022-07-29T05:56:22.584Z,4.22
2022-07-29T05:59:30.432Z,4.10
2022-07-29T06:02:32.528Z,3.80
2022-07-29T06:05:34.436Z,3.60
2022-07-29T06:08:37.556Z,4.20
2022-07-29T06:11:39.220Z,3.67
2022-07-29T06:14:41.189Z,3.75
2022-07-29T06:18:00.385Z,4.03
2022-07-29T06:21:09.724Z,4.30
2022-07-29T06:24:15.632Z,3.65
2022-07-29T06:27:17.598Z,3.87
2022-07-29T06:30:19.571Z,4.00
2022-07-29T06:33:21.566Z,3.60
2022-07-29T06:36:23.557Z,3.80
2022-07-29T06:39:26.905Z,4.07
2022-07-29T06:42:28.569Z,6.85
2022-07-29T06:45:30.444Z,3.50
2022-07-29T06:48:33.329Z,3.75
2022-07-29T06:51:35.255Z,3.50
2022-07-29T06:54:36.918Z,3.72
2022-07-29T06:57:38.838Z,4.35
2022-07-29T07:00:43.866Z,3.40
2022-07-29T07:03:46.709Z,3.62
2022-07-29T07:06:48.616Z,3.60
2022-07-29T07:09:50.518Z,4.05
2022-07-29T07:12:52.660Z,4.20
2022-07-29T07:15:54.674Z,3.67
2022-07-29T07:18:56.478Z,3.83
2022-07-29T07:21:58.280Z,3.35
2022-07-29T07:25:00.115Z,4.35
2022-07-29T07:28:05.197Z,3.40
2022-07-29T07:31:07.174Z,3.85
2022-07-29T07:34:09.226Z,3.62
2022-07-29T07:37:11.179Z,3.45
2022-07-29T07:40:13.915Z,3.20
2022-07-29T07:43:20.876Z,3.40
2022-07-29T07:46:23.151Z,3.55
2022-07-29T07:49:25.242Z,3.25
2022-07-29T07:52:27.287Z,3.50
2022-07-29T07:55:30.708Z,3.67
2022-07-29T07:58:37.313Z,3.20
2022-07-29T08:01:48.112Z,3.40
2022-07-29T08:04:57.671Z,3.55
2022-07-29T08:07:59.696Z,3.47
2022-07-29T08:11:06.931Z,3.78
2022-07-29T08:14:11.231Z,3.22
2022-07-29T08:17:15.806Z,3.10
2022-07-29T08:20:17.760Z,3.67
2022-07-29T08:23:20.197Z,3.08
2022-07-29T08:26:23.652Z,3.50
2022-07-29T08:29:25.554Z,4.15
2022-07-29T08:32:51.231Z,2.83
2022-07-29T08:35:51.584Z,2.90
2022-07-29T08:38:53.763Z,3.50
2022-07-29T08:41:57.285Z,3.00
2022-07-29T08:45:00.013Z,2.78
2022-07-29T08:48:01.987Z,2.80
2022-07-29T08:51:04.677Z,2.65
2022-07-29T08:54:09.226Z,3.50
2022-07-29T08:57:15.339Z,2.92
2022-07-29T09:00:19.241Z,3.55
2022-07-29T09:03:24.380Z,2.53
2022-07-29T09:06:32.423Z,2.50
2022-07-29T09:09:35.485Z,2.65
2022-07-29T09:12:38.200Z,2.70
2022-07-29T09:15:40.377Z,2.90
2022-07-29T09:18:44.549Z,2.55
2022-07-29T09:21:58.867Z,2.58
2022-07-29T09:25:00.899Z,2.42
2022-07-29T09:28:14.297Z,2.80
2022-07-29T09:31:16.256Z,2.40
2022-07-29T09:34:25.664Z,3.40
2022-07-29T09:37:29.622Z,2.40
2022-07-29T09:40:32.460Z,2.72
2022-07-29T09:43:35.440Z,2.65
2022-07-29T09:46:37.524Z,2.20
2022-07-29T09:50:00.585Z,2.40
2022-07-29T09:53:02.628Z,2.33
2022-07-29T09:56:07.557Z,1.98
2022-07-29T09:59:12.334Z,2.20
2022-07-29T10:02:20.298Z,2.17
2022-07-29T10:05:36.299Z,2.20
2022-07-29T10:08:42.794Z,2.05
2022-07-29T10:12:07.221Z,1.92
2022-07-29T10:15:09.301Z,2.20
2022-07-29T10:18:12.953Z,1.92
2022-07-29T10:21:35.022Z,2.20
2022-07-29T10:24:38.496Z,1.80
2022-07-29T10:27:40.953Z,1.90
2022-07-29T10:30:44.591Z,1.70
2022-07-29T10:34:06.037Z,1.73
2022-07-29T10:37:23.949Z,1.67
2022-07-29T10:41:10.606Z,1.60
2022-07-29T10:44:23.143Z,2.10
2022-07-29T10:47:27.182Z,1.87
2022-07-29T10:50:29.076Z,1.50
2022-07-29T10:53:48.926Z,2.20
2022-07-29T10:56:50.936Z,2.60
2022-07-29T11:00:09.896Z,2.25
2022-07-29T11:03:50.826Z,1.92
2022-07-29T11:07:06.962Z,2.50
2022-07-29T11:10:15.318Z,2.37
2022-07-29T11:13:49.018Z,2.35
2022-07-29T11:17:06.713Z,2.10
2022-07-29T11:20:41.414Z,2.50
2022-07-29T11:23:45.311Z,2.62
2022-07-29T11:27:40.749Z,2.60
2022-07-29T11:30:50.141Z,2.67
2022-07-29T11:33:55.752Z,2.28
2022-07-29T11:37:08.177Z,2.47
2022-07-29T11:40:13.490Z,2.62
2022-07-29T11:43:53.845Z,2.30
2022-07-29T11:46:55.774Z,2.70
2022-07-29T11:49:59.946Z,2.60
2022-07-29T11:53:08.791Z,2.80
2022-07-29T11:59:42.684Z,2.80
2022-07-29T12:02:48.529Z,2.47
2022-07-29T12:05:51.964Z,2.70
2022-07-29T12:08:53.947Z,2.80
2022-07-29T12:12:04.919Z,2.60
2022-07-29T12:15:25.084Z,2.78
2022-07-29T12:18:57.653Z,2.67
2022-07-29T12:22:02.217Z,2.83
2022-07-29T12:25:31.861Z,2.30
2022-07-29T12:28:28.586Z,2.60
2022-07-29T12:31:44.078Z,2.58
2022-07-29T12:34:54.500Z,2.60
2022-07-29T12:37:56.488Z,2.72
2022-07-29T12:40:58.755Z,2.70
2022-07-29T12:44:00.578Z,2.72
2022-07-29T12:47:05.931Z,2.80
2022-07-29T12:50:15.350Z,2.53
2022-07-29T12:53:17.755Z,2.55
2022-07-29T12:56:41.699Z,2.60
2022-07-29T12:59:42.645Z,2.45
2022-07-29T13:02:55.124Z,2.58
2022-07-29T13:05:59.224Z,2.47
2022-07-29T13:09:23.844Z,2.50
2022-07-29T13:12:25.657Z,2.25
2022-07-29T13:15:27.699Z,2.42
2022-07-29T13:18:37.055Z,2.60
2022-07-29T13:21:40.340Z,2.15
2022-07-29T13:24:55.751Z,2.58
2022-07-29T13:27:57.860Z,2.10
2022-07-29T13:30:59.823Z,2.10
2022-07-29T13:34:01.841Z,2.10
2022-07-29T13:37:03.761Z,2.72
2022-07-29T13:40:08.011Z,2.25
2022-07-29T13:43:13.295Z,2.30
2022-07-29T13:46:15.174Z,2.00
2022-07-29T13:49:17.225Z,1.80
2022-07-29T13:52:19.128Z,2.03
2022-07-29T13:55:20.897Z,1.83
2022-07-29T13:58:22.984Z,1.85
2022-07-29T14:01:25.652Z,2.08
2022-07-29T14:04:27.606Z,1.98
2022-07-29T14:07:29.384Z,2.10
2022-07-29T14:10:31.230Z,4.35
2022-07-29T14:13:33.212Z,2.20
2022-07-29T14:16:38.093Z,2.03
2022-07-29T14:19:44.054Z,2.10
2022-07-29T14:22:45.942Z,2.50
2022-07-29T14:25:49.543Z,2.17
2022-07-29T14:28:52.476Z,2.10
2022-07-29T14:31:54.383Z,2.30
2022-07-29T14:34:56.084Z,2.28
2022-07-29T14:37:58.446Z,2.42
2022-07-29T14:41:00.186Z,2.50
2022-07-29T14:44:02.694Z,2.37
2022-07-29T14:47:07.684Z,2.40
2022-07-29T14:50:10.848Z,2.42
2022-07-29T14:53:14.147Z,2.42
2022-07-29T14:56:35.977Z,2.37
2022-07-29T14:59:37.858Z,2.85
2022-07-29T15:03:00.517Z,2.80
2022-07-29T15:06:01.581Z,2.60
2022-07-29T15:09:03.670Z,2.85
2022-07-29T15:12:05.992Z,2.47
2022-07-29T15:15:08.487Z,3.20
2022-07-29T15:18:10.438Z,3.40
2022-07-29T15:21:12.432Z,3.85
2022-07-29T15:24:14.355Z,3.00
2022-07-29T15:27:16.146Z,2.80
2022-07-29T15:30:33.517Z,3.03
2022-07-29T15:33:37.232Z,2.70
2022-07-29T15:36:54.581Z,2.80
2022-07-29T15:40:00.019Z,2.85
2022-07-29T15:43:06.772Z,2.87
2022-07-29T15:46:27.627Z,2.80
2022-07-29T15:49:46.639Z,2.75
2022-07-29T15:52:50.766Z,2.87
2022-07-29T15:55:52.850Z,3.00
2022-07-29T15:58:54.814Z,2.33
2022-07-29T16:01:57.072Z,3.10
2022-07-29T16:04:59.983Z,2.97
2022-07-29T16:08:01.774Z,2.97
2022-07-29T16:11:03.636Z,2.80
2022-07-29T16:14:06.050Z,3.10
2022-07-29T16:17:14.465Z,2.85
2022-07-29T16:20:17.284Z,2.90
2022-07-29T16:23:18.973Z,2.72
2022-07-29T16:26:20.994Z,3.05
2022-07-29T16:29:22.858Z,2.87
2022-07-29T16:32:24.860Z,2.87
2022-07-29T16:35:39.218Z,2.75
2022-07-29T16:38:46.989Z,3.00
2022-07-29T16:41:50.589Z,3.22
2022-07-29T16:44:52.506Z,2.95
2022-07-29T16:48:00.225Z,3.20
2022-07-29T16:51:04.975Z,2.92
2022-07-29T16:54:08.954Z,2.70
2022-07-29T16:57:11.876Z,2.70
2022-07-29T17:00:15.514Z,3.22
2022-07-29T17:03:17.172Z,2.78
2022-07-29T17:06:19.059Z,3.20
2022-07-29T17:09:21.192Z,2.85
2022-07-29T17:12:23.146Z,2.42
2022-07-29T17:15:24.859Z,3.00
2022-07-29T17:18:26.804Z,3.03
2022-07-29T17:21:28.652Z,2.80
2022-07-29T17:24:30.824Z,3.17
2022-07-29T17:27:33.141Z,3.05
2022-07-29T17:30:35.088Z,3.00
2022-07-29T17:33:37.088Z,3.25
2022-07-29T17:36:39.041Z,3.15
2022-07-29T17:39:42.773Z,2.80
2022-07-29T17:42:44.643Z,2.78
2022-07-29T17:45:49.949Z,3.22
2022-07-29T17:48:53.508Z,3.20
2022-07-29T17:51:59.038Z,2.90
2022-07-29T17:55:02.727Z,2.80
2022-07-29T17:58:09.031Z,2.87
2022-07-29T18:01:10.977Z,3.10
2022-07-29T18:04:13.116Z,2.50
2022-07-29T18:07:15.007Z,3.20
2022-07-29T18:10:16.901Z,3.20
2022-07-29T18:13:19.319Z,2.62
2022-07-29T18:16:21.153Z,2.72
2022-07-29T18:19:25.138Z,3.05
2022-07-29T18:22:27.091Z,3.00
2022-07-29T18:25:29.674Z,2.90
2022-07-29T18:28:32.820Z,2.90
2022-07-29T18:31:34.730Z,2.97
2022-07-29T18:34:36.571Z,3.12
2022-07-29T18:38:02.069Z,3.08
2022-07-29T18:41:00.714Z,2.70
2022-07-29T18:44:02.670Z,3.97
2022-07-29T18:47:06.645Z,3.80
2022-07-29T18:50:13.583Z,3.85
2022-07-29T18:53:15.554Z,4.03
2022-07-29T18:56:17.479Z,4.37
2022-07-29T18:59:21.753Z,4.57
2022-07-29T19:02:23.866Z,4.78
2022-07-29T19:05:28.918Z,4.80
2022-07-29T19:08:31.778Z,4.90
2022-07-29T19:11:33.671Z,4.18
2022-07-29T19:14:35.784Z,4.85
2022-07-29T19:17:38.874Z,4.18
2022-07-29T19:20:42.051Z,4.60
2022-07-29T19:24:05.821Z,4.82
2022-07-29T19:27:06.006Z,4.80
2022-07-29T19:30:09.559Z,5.00
2022-07-29T19:33:12.966Z,5.00
2022-07-29T19:36:15.046Z,4.78
2022-07-29T19:39:17.986Z,4.90
2022-07-29T19:42:35.270Z,5.07
2022-07-29T19:45:37.287Z,5.10
2022-07-29T19:48:39.260Z,5.00
2022-07-29T19:51:41.764Z,5.12
2022-07-29T19:54:43.466Z,5.05
2022-07-29T19:57:49.132Z,5.15
2022-07-29T20:00:51.223Z,5.15
2022-07-29T20:03:54.160Z,4.95
2022-07-29T20:07:01.713Z,4.75
2022-07-29T20:10:05.341Z,4.47
2022-07-29T20:13:07.356Z,4.82
2022-07-29T20:16:09.431Z,4.80
2022-07-29T20:19:12.128Z,4.80
2022-07-29T20:22:14.681Z,4.97
2022-07-29T20:25:23.973Z,4.70
2022-07-29T20:28:25.951Z,5.30
2022-07-29T20:31:28.081Z,4.75
2022-07-29T20:34:30.080Z,4.70
2022-07-29T20:37:32.814Z,4.65
2022-07-29T20:40:55.799Z,4.85
2022-07-29T20:43:57.463Z,5.22
2022-07-29T20:46:59.576Z,4.43
2022-07-29T20:50:01.392Z,5.28
2022-07-29T20:53:04.199Z,4.82
2022-07-29T20:56:10.152Z,4.97
2022-07-29T21:02:28.035Z,4.75
2022-07-29T21:05:30.240Z,6.65
2022-07-29T21:08:32.402Z,4.97
2022-07-29T21:11:44.038Z,5.10
2022-07-29T21:14:48.214Z,4.87
2022-07-29T21:17:52.273Z,4.93
2022-07-29T21:20:55.346Z,4.95
2022-07-29T21:23:57.392Z,5.20
2022-07-29T21:27:21.035Z,5.30
2022-07-29T21:30:23.369Z,5.20
2022-07-29T21:33:28.197Z,5.20
2022-07-29T21:39:51.890Z,5.45
2022-07-29T21:42:54.774Z,5.12
2022-07-29T21:45:57.912Z,5.18
2022-07-29T21:48:59.849Z,5.07
2022-07-29T21:52:01.796Z,5.45
2022-07-29T21:55:03.724Z,4.90
2022-07-29T21:58:06.372Z,5.12
2022-07-29T22:01:08.421Z,5.30
2022-07-29T22:04:10.311Z,5.43
2022-07-29T22:07:12.379Z,5.28
2022-07-29T22:10:15.977Z,5.28
2022-07-29T22:13:17.675Z,5.35
2022-07-29T22:16:20.674Z,5.43
2022-07-29T22:19:22.403Z,5.55
2022-07-29T22:22:29.267Z,5.53
2022-07-29T22:25:31.357Z,5.85
2022-07-29T22:28:33.455Z,5.95
2022-07-29T22:31:35.451Z,5.47
2022-07-29T22:34:37.997Z,5.65
2022-07-29T22:37:44.080Z,5.87
2022-07-29T22:40:47.002Z,5.68
2022-07-29T22:43:51.455Z,5.37
2022-07-29T22:47:00.677Z,5.28
2022-07-29T22:50:02.800Z,4.85
2022-07-29T22:53:04.675Z,5.68
2022-07-29T22:56:06.604Z,5.68
2022-07-29T22:59:08.614Z,5.20
2022-07-29T23:02:10.565Z,4.85
2022-07-29T23:05:12.621Z,5.30
2022-07-29T23:08:14.660Z,4.80
2022-07-29T23:11:16.951Z,4.97
2022-07-29T23:14:18.999Z,5.03
2022-07-29T23:17:21.011Z,4.80
2022-07-29T23:20:22.915Z,5.15
2022-07-29T23:23:24.863Z,4.50
2022-07-29T23:26:30.313Z,4.28
2022-07-29T23:29:36.648Z,5.00
2022-07-29T23:32:39.179Z,4.70
2022-07-29T23:35:41.115Z,5.05
2022-07-29T23:38:42.891Z,4.47
2022-07-29T23:41:44.819Z,4.72
2022-07-29T23:44:46.626Z,4.90
2022-07-29T23:47:48.640Z,4.45
2022-07-29T23:50:50.592Z,4.62
2022-07-29T23:53:54.411Z,5.62
2022-07-29T23:56:57.917Z,5.10
